Time;durP1;ratioP1;P1;durP2;ratioP2;P2;SDS_P1;SDS_P2;PMS_P1;PMS_P2;Temp;Humidity;BMP_temperature;BMP_pressure;BME280_temperature;BME280_humidity;BME280_pressure;Samples;Min_cycle;Max_cycle;Signal;HPM_P1;HPM_P2
2023/07/02 00:00:27;;;;;;;3.63;2.30;;;;;;;;;;5142791;27;20206;-68
2023/07/02 00:02:54;;;;;;;2.60;2.38;;;;;;;;;;5141701;27;20530;-68
2023/07/02 00:05:20;;;;;;;2.65;2.42;;;;;;;;;;5141363;27;20190;-68
2023/07/02 00:07:46;;;;;;;4.05;2.50;;;;;;;;;;5141505;27;20199;-68
2023/07/02 00:10:13;;;;;;;3.45;2.83;;;;;;;;;;5141168;27;20565;-68
2023/07/02 00:12:40;;;;;;;2.50;2.40;;;;;;;;;;5141318;27;20199;-68
2023/07/02 00:15:07;;;;;;;2.83;2.45;;;;;;;;;;5141750;27;20194;-68
2023/07/02 00:17:33;;;;;;;2.95;2.55;;;;;;;;;;5143129;27;20194;-68
2023/07/02 00:20:08;;;;;;;3.28;2.97;;;;;;;;;;5143278;27;20194;-67
2023/07/02 00:22:36;;;;;;;2.90;2.55;;;;;;;;;;5143407;27;20493;-67
2023/07/02 00:25:02;;;;;;;2.45;2.28;;;;;;;;;;5143412;27;20201;-67
2023/07/02 00:27:28;;;;;;;2.83;2.72;;;;;;;;;;5143275;27;20221;-67
2023/07/02 00:29:56;;;;;;;2.47;2.38;;;;;;;;;;5143091;27;20393;-69
2023/07/02 00:32:22;;;;;;;3.72;2.50;;;;;;;;;;5142816;27;20199;-67
2023/07/02 00:34:48;;;;;;;2.38;2.17;;;;;;;;;;5142841;27;20260;-67
2023/07/02 00:37:15;;;;;;;3.83;2.65;;;;;;;;;;5143158;27;20205;-67
2023/07/02 00:39:41;;;;;;;3.28;2.80;;;;;;;;;;5143151;27;20198;-67
2023/07/02 00:42:08;;;;;;;2.67;2.58;;;;;;;;;;5142898;27;20389;-67
2023/07/02 00:44:40;;;;;;;3.30;2.80;;;;;;;;;;5142839;27;20256;-69
2023/07/02 00:47:08;;;;;;;3.00;2.80;;;;;;;;;;5143269;27;20209;-67
2023/07/02 00:49:34;;;;;;;4.55;2.78;;;;;;;;;;5143064;27;20194;-67
2023/07/02 00:52:00;;;;;;;3.30;2.80;;;;;;;;;;5142908;27;20195;-67
2023/07/02 00:54:28;;;;;;;2.85;2.65;;;;;;;;;;5143260;27;20190;-67
2023/07/02 00:56:54;;;;;;;3.60;2.90;;;;;;;;;;5142991;27;20201;-67
2023/07/02 00:59:21;;;;;;;3.25;2.60;;;;;;;;;;5142757;27;20208;-67
2023/07/02 01:01:49;;;;;;;3.15;2.90;;;;;;;;;;5142942;27;20202;-67
2023/07/02 01:04:17;;;;;;;3.08;2.97;;;;;;;;;;5143135;27;20477;-67
2023/07/02 01:06:45;;;;;;;2.90;2.80;;;;;;;;;;5143393;27;20194;-67
2023/07/02 01:09:12;;;;;;;3.38;3.17;;;;;;;;;;5146753;27;20194;-67
2023/07/02 01:11:40;;;;;;;4.45;3.13;;;;;;;;;;5146338;27;20385;-67
2023/07/02 01:14:09;;;;;;;4.13;3.92;;;;;;;;;;5146561;27;20190;-69
2023/07/02 01:16:36;;;;;;;3.15;2.88;;;;;;;;;;5146417;27;20198;-67
2023/07/02 01:19:04;;;;;;;4.90;2.90;;;;;;;;;;5146196;27;20198;-68
2023/07/02 01:21:33;;;;;;;3.35;3.00;;;;;;;;;;5145956;27;20201;-68
2023/07/02 01:24:00;;;;;;;4.45;3.47;;;;;;;;;;5146453;27;20226;-68
2023/07/02 01:26:28;;;;;;;3.22;3.08;;;;;;;;;;5146185;27;20265;-68
2023/07/02 01:28:54;;;;;;;3.40;3.20;;;;;;;;;;5146398;27;20296;-68
2023/07/02 01:31:24;;;;;;;3.38;3.28;;;;;;;;;;5145948;27;20194;-68
2023/07/02 01:36:23;;;;;;;2.88;2.72;;;;;;;;;;5145427;27;20236;-68
2023/07/02 01:38:50;;;;;;;3.13;3.03;;;;;;;;;;5146482;27;20201;-68
2023/07/02 01:41:16;;;;;;;3.30;3.10;;;;;;;;;;5146139;27;20206;-68
2023/07/02 01:43:43;;;;;;;6.28;3.30;;;;;;;;;;5145915;27;20435;-68
2023/07/02 01:46:09;;;;;;;2.67;2.58;;;;;;;;;;5145918;27;20198;-68
2023/07/02 01:48:35;;;;;;;3.25;2.47;;;;;;;;;;5146001;27;20414;-68
2023/07/02 01:51:02;;;;;;;2.72;2.55;;;;;;;;;;5145623;27;20217;-68
2023/07/02 01:53:28;;;;;;;3.03;2.78;;;;;;;;;;5145939;27;20419;-68
2023/07/02 01:55:55;;;;;;;2.83;2.72;;;;;;;;;;5145907;27;20270;-68
2023/07/02 01:58:22;;;;;;;2.83;2.72;;;;;;;;;;5145848;27;20190;-68
2023/07/02 02:00:48;;;;;;;3.10;2.90;;;;;;;;;;5145445;27;20203;-68
2023/07/02 02:03:15;;;;;;;6.45;3.45;;;;;;;;;;5145136;27;20267;-68
2023/07/02 02:05:41;;;;;;;2.70;2.50;;;;;;;;;;5145131;27;20231;-68
2023/07/02 02:08:07;;;;;;;2.78;2.60;;;;;;;;;;5145309;27;20198;-68
2023/07/02 02:10:33;;;;;;;3.03;2.80;;;;;;;;;;5144820;27;20194;-68
2023/07/02 02:13:01;;;;;;;2.88;2.67;;;;;;;;;;5145407;27;20211;-68
2023/07/02 02:15:27;;;;;;;3.13;2.92;;;;;;;;;;5145177;27;20498;-68
2023/07/02 02:17:54;;;;;;;3.20;2.97;;;;;;;;;;5144923;27;20195;-68
2023/07/02 02:20:20;;;;;;;3.20;2.90;;;;;;;;;;5144892;27;20194;-68
2023/07/02 02:22:46;;;;;;;2.80;2.70;;;;;;;;;;5144781;27;20400;-68
2023/07/02 02:25:12;;;;;;;4.13;2.80;;;;;;;;;;5144749;27;20218;-68
2023/07/02 02:27:39;;;;;;;2.97;2.83;;;;;;;;;;5144759;27;20259;-68
2023/07/02 02:30:07;;;;;;;3.08;2.88;;;;;;;;;;5144531;27;20194;-68
2023/07/02 02:32:34;;;;;;;2.50;2.40;;;;;;;;;;5144597;27;20209;-68
2023/07/02 02:35:00;;;;;;;4.03;2.60;;;;;;;;;;5144815;27;20194;-68
2023/07/02 02:37:26;;;;;;;3.58;2.90;;;;;;;;;;5144603;27;20275;-68
2023/07/02 02:39:52;;;;;;;2.97;2.72;;;;;;;;;;5144543;27;20202;-68
2023/07/02 02:42:18;;;;;;;2.45;2.30;;;;;;;;;;5144329;27;20194;-68
2023/07/02 02:44:45;;;;;;;5.40;2.70;;;;;;;;;;5144364;27;20210;-68
2023/07/02 02:47:12;;;;;;;2.33;2.22;;;;;;;;;;5144399;27;20194;-68
2023/07/02 02:49:39;;;;;;;3.70;2.60;;;;;;;;;;5144205;27;20203;-68
2023/07/02 02:52:06;;;;;;;3.08;2.75;;;;;;;;;;5144013;27;20231;-68
2023/07/02 02:54:32;;;;;;;3.70;2.75;;;;;;;;;;5144186;27;20194;-68
2023/07/02 02:56:58;;;;;;;3.08;2.88;;;;;;;;;;5144242;27;20195;-68
2023/07/02 02:59:24;;;;;;;2.53;2.53;;;;;;;;;;5144106;27;20202;-68
2023/07/02 03:01:51;;;;;;;2.53;2.35;;;;;;;;;;5144149;27;20208;-68
2023/07/02 03:04:18;;;;;;;2.42;2.33;;;;;;;;;;5144129;27;20210;-68
2023/07/02 03:06:45;;;;;;;5.25;2.78;;;;;;;;;;5144162;27;20524;-68
2023/07/02 03:09:12;;;;;;;2.70;2.50;;;;;;;;;;5143946;27;20512;-68
2023/07/02 03:11:38;;;;;;;2.60;2.38;;;;;;;;;;5144128;27;20497;-68
2023/07/02 03:14:04;;;;;;;4.35;2.30;;;;;;;;;;5143983;27;20202;-68
2023/07/02 03:16:31;;;;;;;3.00;2.83;;;;;;;;;;5144017;27;20207;-68
2023/07/02 03:18:58;;;;;;;3.85;2.67;;;;;;;;;;5144080;27;20435;-68
2023/07/02 03:21:26;;;;;;;2.60;2.50;;;;;;;;;;5143702;27;20202;-68
2023/07/02 03:23:52;;;;;;;2.67;2.47;;;;;;;;;;5143652;27;20210;-68
2023/07/02 03:26:19;;;;;;;2.72;2.63;;;;;;;;;;5143817;27;20203;-68
2023/07/02 03:28:46;;;;;;;2.13;2.05;;;;;;;;;;5143534;27;20221;-68
2023/07/02 03:31:12;;;;;;;2.60;2.40;;;;;;;;;;5143509;27;20194;-68
2023/07/02 03:33:38;;;;;;;3.00;2.72;;;;;;;;;;5143799;27;20537;-68
2023/07/02 03:36:04;;;;;;;4.53;2.55;;;;;;;;;;5143620;27;20502;-68
2023/07/02 03:38:32;;;;;;;3.00;2.78;;;;;;;;;;5143628;27;20431;-68
2023/07/02 03:40:58;;;;;;;4.13;3.05;;;;;;;;;;5143301;27;20529;-68
2023/07/02 03:43:25;;;;;;;2.60;2.20;;;;;;;;;;5143127;27;20428;-68
2023/07/02 03:45:52;;;;;;;3.40;2.70;;;;;;;;;;5143599;27;20191;-68
2023/07/02 03:48:18;;;;;;;3.78;2.60;;;;;;;;;;5143402;27;20202;-68
2023/07/02 03:50:44;;;;;;;4.90;3.08;;;;;;;;;;5143343;27;20194;-68
2023/07/02 03:53:11;;;;;;;4.40;2.72;;;;;;;;;;5143676;27;20194;-68
2023/07/02 03:55:39;;;;;;;4.20;2.95;;;;;;;;;;5143189;27;20190;-68
2023/07/02 03:58:05;;;;;;;4.60;2.75;;;;;;;;;;5143204;27;20209;-68
2023/07/02 04:00:31;;;;;;;7.15;2.95;;;;;;;;;;5142909;27;20209;-68
2023/07/02 04:02:57;;;;;;;5.15;3.15;;;;;;;;;;5143310;27;20206;-68
2023/07/02 04:05:24;;;;;;;4.88;2.92;;;;;;;;;;5143280;27;20218;-68
2023/07/02 04:07:50;;;;;;;4.97;3.22;;;;;;;;;;5143139;27;20194;-68
2023/07/02 04:10:16;;;;;;;4.68;3.17;;;;;;;;;;5142853;27;20232;-68
2023/07/02 04:12:44;;;;;;;4.50;2.85;;;;;;;;;;5142944;27;20206;-68
2023/07/02 04:15:10;;;;;;;4.47;2.95;;;;;;;;;;5142888;27;20191;-68
2023/07/02 04:17:37;;;;;;;4.13;3.10;;;;;;;;;;5143164;27;20194;-68
2023/07/02 04:20:03;;;;;;;3.13;2.95;;;;;;;;;;5143201;27;20198;-68
2023/07/02 04:22:30;;;;;;;3.38;3.08;;;;;;;;;;5142695;27;20201;-68
2023/07/02 04:24:56;;;;;;;7.35;3.22;;;;;;;;;;5142904;27;20244;-68
2023/07/02 04:27:23;;;;;;;3.40;3.10;;;;;;;;;;5142900;27;20221;-68
2023/07/02 04:29:50;;;;;;;3.92;3.28;;;;;;;;;;5143118;27;20191;-68
2023/07/02 04:32:16;;;;;;;3.40;3.10;;;;;;;;;;5142784;27;20200;-68
2023/07/02 04:34:43;;;;;;;4.47;3.55;;;;;;;;;;5143196;27;20194;-68
2023/07/02 04:37:10;;;;;;;3.60;3.22;;;;;;;;;;5142984;27;20502;-68
2023/07/02 04:39:36;;;;;;;3.53;3.30;;;;;;;;;;5142856;27;20498;-68
2023/07/02 04:42:02;;;;;;;4.03;3.55;;;;;;;;;;5143632;27;20194;-68
2023/07/02 04:44:29;;;;;;;5.32;3.85;;;;;;;;;;5147098;27;20233;-68
2023/07/02 04:46:58;;;;;;;5.30;3.25;;;;;;;;;;5146735;27;20395;-68
2023/07/02 04:49:24;;;;;;;6.90;3.83;;;;;;;;;;5146983;27;20397;-68
2023/07/02 04:51:50;;;;;;;7.25;3.65;;;;;;;;;;5146459;27;20429;-68
2023/07/02 04:54:17;;;;;;;7.22;3.60;;;;;;;;;;5146597;27;20195;-68
2023/07/02 04:56:43;;;;;;;4.10;3.50;;;;;;;;;;5146963;27;20201;-68
2023/07/02 04:59:09;;;;;;;6.10;3.78;;;;;;;;;;5146658;27;20222;-68
2023/07/02 05:01:36;;;;;;;4.82;4.00;;;;;;;;;;5146361;27;20195;-68
2023/07/02 05:04:04;;;;;;;7.00;4.00;;;;;;;;;;5146386;27;20390;-68
2023/07/02 05:06:31;;;;;;;3.88;3.47;;;;;;;;;;5146331;27;20194;-69
2023/07/02 05:08:57;;;;;;;3.75;3.30;;;;;;;;;;5146196;27;20206;-68
2023/07/02 05:11:23;;;;;;;4.30;3.67;;;;;;;;;;5146556;27;20205;-68
2023/07/02 05:13:49;;;;;;;5.10;4.07;;;;;;;;;;5146393;27;20194;-68
2023/07/02 05:16:16;;;;;;;7.97;3.88;;;;;;;;;;5146301;27;20196;-68
2023/07/02 05:18:42;;;;;;;5.20;3.97;;;;;;;;;;5146593;27;20203;-68
2023/07/02 05:21:10;;;;;;;4.20;3.78;;;;;;;;;;5145832;27;20210;-68
2023/07/02 05:23:36;;;;;;;6.22;3.80;;;;;;;;;;5146023;27;20239;-68
2023/07/02 05:26:02;;;;;;;6.68;4.45;;;;;;;;;;5145899;27;20226;-68
2023/07/02 05:28:29;;;;;;;5.53;4.05;;;;;;;;;;5145828;27;20222;-68
2023/07/02 05:30:55;;;;;;;4.72;3.58;;;;;;;;;;5145830;27;20210;-68
2023/07/02 05:33:22;;;;;;;5.47;3.40;;;;;;;;;;5145960;27;20198;-68
2023/07/02 05:35:48;;;;;;;3.33;2.97;;;;;;;;;;5145676;27;20197;-68
2023/07/02 05:38:16;;;;;;;6.40;3.63;;;;;;;;;;5146133;27;20194;-68
2023/07/02 05:40:42;;;;;;;4.78;3.30;;;;;;;;;;5145561;27;20195;-68
2023/07/02 05:43:08;;;;;;;4.78;3.92;;;;;;;;;;5145670;27;20240;-68
2023/07/02 05:45:35;;;;;;;5.13;3.72;;;;;;;;;;5145800;27;20221;-68
2023/07/02 05:48:01;;;;;;;5.85;3.40;;;;;;;;;;5145740;27;20198;-68
2023/07/02 05:50:27;;;;;;;5.60;3.38;;;;;;;;;;5145397;27;20239;-68
2023/07/02 05:52:53;;;;;;;7.72;3.80;;;;;;;;;;5145698;27;20202;-68
2023/07/02 05:55:21;;;;;;;4.70;3.90;;;;;;;;;;5145687;27;20190;-68
2023/07/02 05:57:47;;;;;;;5.10;4.00;;;;;;;;;;5145897;27;20202;-68
2023/07/02 06:00:14;;;;;;;7.93;5.20;;;;;;;;;;5145404;27;20203;-68
2023/07/02 06:02:40;;;;;;;8.93;4.78;;;;;;;;;;5145522;27;20391;-68
2023/07/02 06:05:07;;;;;;;11.55;5.93;;;;;;;;;;5145370;27;20214;-68
2023/07/02 06:07:33;;;;;;;7.32;5.43;;;;;;;;;;5145727;27;20449;-68
2023/07/02 06:09:59;;;;;;;9.93;6.15;;;;;;;;;;5145445;27;20498;-68
2023/07/02 06:12:27;;;;;;;12.23;5.93;;;;;;;;;;5145374;27;20547;-68
2023/07/02 06:14:53;;;;;;;12.60;5.82;;;;;;;;;;5145291;27;20197;-68
2023/07/02 06:17:20;;;;;;;11.07;6.20;;;;;;;;;;5145666;27;20206;-68
2023/07/02 06:19:46;;;;;;;11.60;6.00;;;;;;;;;;5145117;27;20195;-68
2023/07/02 06:22:13;;;;;;;8.18;5.53;;;;;;;;;;5145065;27;20194;-69
2023/07/02 06:24:39;;;;;;;8.60;5.60;;;;;;;;;;5145235;27;20260;-68
2023/07/02 06:27:05;;;;;;;11.30;5.80;;;;;;;;;;5144974;27;20214;-68
2023/07/02 06:29:33;;;;;;;8.90;5.70;;;;;;;;;;5145104;27;20194;-68
2023/07/02 06:32:00;;;;;;;12.40;6.03;;;;;;;;;;5144891;27;20232;-68
2023/07/02 06:34:26;;;;;;;13.73;6.60;;;;;;;;;;5144741;27;20232;-68
2023/07/02 06:36:52;;;;;;;15.05;6.70;;;;;;;;;;5144853;27;20270;-68
2023/07/02 06:39:19;;;;;;;9.95;6.93;;;;;;;;;;5144864;27;20240;-68
2023/07/02 06:41:45;;;;;;;9.82;6.45;;;;;;;;;;5144567;27;20198;-68
2023/07/02 06:44:11;;;;;;;7.13;6.18;;;;;;;;;;5144737;27;20209;-68
2023/07/02 06:46:39;;;;;;;9.73;6.60;;;;;;;;;;5144621;27;20428;-69
2023/07/02 06:49:05;;;;;;;15.88;7.70;;;;;;;;;;5144516;27;20206;-61
2023/07/02 06:51:33;;;;;;;16.65;8.38;;;;;;;;;;5144660;27;20371;-61
2023/07/02 06:53:59;;;;;;;14.55;8.07;;;;;;;;;;5144575;27;20213;-61
2023/07/02 06:56:25;;;;;;;14.20;8.43;;;;;;;;;;5144583;27;20199;-61
2023/07/02 06:58:52;;;;;;;15.38;8.27;;;;;;;;;;5144303;27;20221;-61
2023/07/02 07:01:18;;;;;;;15.73;8.65;;;;;;;;;;5144709;27;20231;-61
2023/07/02 07:03:46;;;;;;;15.45;9.25;;;;;;;;;;5144439;27;20198;-61
2023/07/02 07:06:12;;;;;;;15.85;9.02;;;;;;;;;;5143651;27;20240;-61
2023/07/02 07:08:39;;;;;;;16.63;9.05;;;;;;;;;;5144444;27;20247;-61
2023/07/02 07:11:05;;;;;;;18.48;10.25;;;;;;;;;;5144530;27;20199;-61
2023/07/02 07:13:32;;;;;;;18.33;9.27;;;;;;;;;;5144182;27;20205;-61
2023/07/02 07:15:58;;;;;;;18.00;9.55;;;;;;;;;;5143977;27;20195;-61
2023/07/02 07:18:24;;;;;;;19.40;10.05;;;;;;;;;;5144366;27;20194;-61
2023/07/02 07:20:53;;;;;;;17.73;9.65;;;;;;;;;;5144123;27;20198;-61
2023/07/02 07:23:19;;;;;;;15.93;8.95;;;;;;;;;;5144052;27;20209;-61
2023/07/02 07:25:45;;;;;;;17.23;9.38;;;;;;;;;;5144032;27;20218;-61
2023/07/02 07:28:15;;;;;;;17.85;9.32;;;;;;;;;;5143800;27;20237;-61
2023/07/02 07:30:41;;;;;;;17.20;9.80;;;;;;;;;;5143756;27;20202;-61
2023/07/02 07:33:07;;;;;;;18.27;10.30;;;;;;;;;;5143953;27;20198;-61
2023/07/02 07:35:34;;;;;;;17.23;9.52;;;;;;;;;;5143537;27;20194;-61
2023/07/02 07:38:01;;;;;;;17.33;10.88;;;;;;;;;;5143669;27;20547;-61
2023/07/02 07:40:28;;;;;;;19.58;11.23;;;;;;;;;;5143444;27;20231;-61
2023/07/02 07:42:54;;;;;;;19.35;10.55;;;;;;;;;;5143448;27;20194;-61
2023/07/02 07:45:20;;;;;;;18.42;10.05;;;;;;;;;;5143573;27;20222;-62
2023/07/02 07:47:46;;;;;;;18.42;10.50;;;;;;;;;;5143493;27;20246;-61
2023/07/02 07:50:13;;;;;;;18.15;10.57;;;;;;;;;;5143387;27;20198;-62
2023/07/02 07:52:39;;;;;;;19.23;11.38;;;;;;;;;;5143468;27;20209;-61
2023/07/02 07:55:07;;;;;;;24.08;11.73;;;;;;;;;;5143185;27;20276;-61
2023/07/02 07:57:34;;;;;;;19.02;10.90;;;;;;;;;;5143158;27;20201;-61
2023/07/02 08:00:00;;;;;;;20.85;11.45;;;;;;;;;;5143286;27;20246;-61
2023/07/02 08:02:27;;;;;;;24.67;12.30;;;;;;;;;;5143214;27;20239;-61
2023/07/02 08:04:53;;;;;;;23.33;11.57;;;;;;;;;;5143189;27;20194;-61
2023/07/02 08:07:20;;;;;;;24.23;12.75;;;;;;;;;;5143567;27;20194;-62
2023/07/02 08:09:46;;;;;;;23.13;12.65;;;;;;;;;;5143391;27;20194;-62
2023/07/02 08:12:13;;;;;;;22.75;13.07;;;;;;;;;;5143117;27;20446;-61
2023/07/02 08:14:40;;;;;;;21.98;12.57;;;;;;;;;;5143628;27;20206;-61
2023/07/02 08:17:06;;;;;;;21.38;12.93;;;;;;;;;;5145964;27;20190;-61
2023/07/02 08:19:32;;;;;;;23.75;12.00;;;;;;;;;;5147449;27;20240;-61
2023/07/02 08:21:59;;;;;;;23.35;12.60;;;;;;;;;;5147056;27;20231;-61
2023/07/02 08:24:25;;;;;;;21.73;12.85;;;;;;;;;;5147196;27;20198;-61
2023/07/02 08:26:51;;;;;;;24.25;11.90;;;;;;;;;;5146871;27;20222;-61
2023/07/02 08:29:19;;;;;;;25.20;12.80;;;;;;;;;;5147369;27;20198;-61
2023/07/02 08:31:45;;;;;;;18.88;11.77;;;;;;;;;;5147073;27;20524;-61
2023/07/02 08:34:11;;;;;;;25.65;12.80;;;;;;;;;;5147085;27;20251;-61
2023/07/02 08:36:37;;;;;;;20.92;12.80;;;;;;;;;;5146927;27;20520;-61
2023/07/02 08:39:04;;;;;;;22.88;12.45;;;;;;;;;;5146994;27;20201;-61
2023/07/02 08:41:31;;;;;;;22.10;12.13;;;;;;;;;;5146524;27;20198;-62
2023/07/02 08:43:57;;;;;;;24.70;14.07;;;;;;;;;;5146949;27;20266;-61
2023/07/02 08:46:25;;;;;;;24.77;12.35;;;;;;;;;;5146848;27;20214;-61
2023/07/02 08:48:51;;;;;;;23.42;13.38;;;;;;;;;;5146805;27;20194;-61
2023/07/02 08:51:17;;;;;;;21.42;12.07;;;;;;;;;;5146503;27;20206;-61
2023/07/02 08:53:44;;;;;;;19.02;12.45;;;;;;;;;;5146632;27;20532;-61
2023/07/02 08:56:10;;;;;;;19.30;12.18;;;;;;;;;;5146978;27;20406;-61
2023/07/02 08:58:36;;;;;;;17.85;11.88;;;;;;;;;;5146612;27;20371;-61
2023/07/02 09:01:06;;;;;;;23.33;12.55;;;;;;;;;;5146448;27;20513;-61
2023/07/02 09:03:34;;;;;;;20.55;12.63;;;;;;;;;;5146956;27;20194;-61
2023/07/02 09:06:00;;;;;;;21.20;12.15;;;;;;;;;;5146254;27;20214;-58
2023/07/02 09:08:27;;;;;;;19.73;11.80;;;;;;;;;;5146269;27;20194;-58
2023/07/02 09:10:54;;;;;;;22.20;12.70;;;;;;;;;;5146466;27;20239;-59
2023/07/02 09:13:20;;;;;;;25.48;12.80;;;;;;;;;;5146520;27;20195;-58
2023/07/02 09:15:46;;;;;;;21.27;12.70;;;;;;;;;;5146257;27;20208;-58
2023/07/02 09:18:19;;;;;;;18.65;12.52;;;;;;;;;;5146358;27;20277;-59
2023/07/02 09:20:47;;;;;;;19.45;12.85;;;;;;;;;;5146031;27;20502;-58
2023/07/02 09:23:13;;;;;;;20.98;13.38;;;;;;;;;;5146359;27;20194;-58
2023/07/02 09:25:41;;;;;;;21.35;12.10;;;;;;;;;;5146219;27;20537;-58
2023/07/02 09:28:17;;;;;;;19.88;11.93;;;;;;;;;;5145477;27;20214;-59
2023/07/02 09:30:51;;;;;;;16.08;11.45;;;;;;;;;;5145761;27;20198;-58
2023/07/02 09:33:17;;;;;;;19.98;11.68;;;;;;;;;;5145735;27;20202;-59
2023/07/02 09:35:43;;;;;;;22.17;12.23;;;;;;;;;;5146016;27;20194;-58
2023/07/02 09:38:11;;;;;;;19.42;12.25;;;;;;;;;;5145953;27;20231;-58
2023/07/02 09:40:44;;;;;;;18.25;11.52;;;;;;;;;;5145787;27;20439;-59
2023/07/02 09:43:10;;;;;;;20.92;11.25;;;;;;;;;;5145840;27;20201;-59
2023/07/02 09:45:37;;;;;;;17.83;11.80;;;;;;;;;;5164177;27;20200;-57
2023/07/02 09:48:03;;;;;;;20.67;11.45;;;;;;;;;;5166289;27;20527;-59
2023/07/02 09:50:30;;;;;;;19.33;10.88;;;;;;;;;;5166407;27;20193;-72
2023/07/02 09:52:56;;;;;;;18.05;11.13;;;;;;;;;;5166817;27;20216;-73
2023/07/02 09:55:24;;;;;;;16.55;10.90;;;;;;;;;;5158988;27;20191;-74
2023/07/02 09:57:50;;;;;;;20.27;11.68;;;;;;;;;;5145604;27;20194;-73
2023/07/02 10:00:17;;;;;;;19.00;10.85;;;;;;;;;;5145297;27;20205;-73
2023/07/02 10:02:48;;;;;;;21.73;12.18;;;;;;;;;;5145422;27;20505;-73
2023/07/02 10:05:25;;;;;;;16.95;11.77;;;;;;;;;;5145822;27;20231;-73
2023/07/02 10:07:51;;;;;;;21.88;11.80;;;;;;;;;;5145482;27;20212;-73
2023/07/02 10:10:27;;;;;;;25.15;12.85;;;;;;;;;;5145252;27;20202;-73
2023/07/02 10:12:54;;;;;;;19.73;13.20;;;;;;;;;;5145216;27;20262;-73
2023/07/02 10:15:25;;;;;;;24.13;13.05;;;;;;;;;;5145594;27;20220;-73
2023/07/02 10:17:55;;;;;;;19.77;12.13;;;;;;;;;;5145790;27;20368;-73
2023/07/02 10:20:32;;;;;;;19.17;11.85;;;;;;;;;;5145283;27;20197;-73
2023/07/02 10:22:58;;;;;;;22.27;12.48;;;;;;;;;;5145368;27;20186;-73
2023/07/02 10:25:25;;;;;;;22.13;12.85;;;;;;;;;;5144941;27;20194;-73
2023/07/02 10:27:53;;;;;;;18.25;12.05;;;;;;;;;;5144778;27;20218;-73
2023/07/02 10:30:20;;;;;;;19.27;12.20;;;;;;;;;;5145119;27;20393;-73
2023/07/02 10:32:46;;;;;;;23.83;13.23;;;;;;;;;;5145182;27;20194;-74
2023/07/02 10:35:16;;;;;;;23.20;13.18;;;;;;;;;;5145222;27;20554;-74
2023/07/02 10:37:42;;;;;;;22.73;13.68;;;;;;;;;;5144971;27;20190;-74
2023/07/02 10:40:10;;;;;;;22.30;14.60;;;;;;;;;;5143570;27;20502;-74
2023/07/02 10:42:45;;;;;;;25.10;15.55;;;;;;;;;;5144961;27;20445;-74
2023/07/02 10:45:13;;;;;;;22.88;14.98;;;;;;;;;;5144880;27;20194;-74
2023/07/02 10:47:40;;;;;;;26.63;15.10;;;;;;;;;;5144650;27;20563;-74
2023/07/02 10:50:14;;;;;;;22.38;14.60;;;;;;;;;;5144665;27;20194;-75
2023/07/02 10:52:40;;;;;;;26.30;15.00;;;;;;;;;;5144739;27;20359;-75
2023/07/02 10:55:07;;;;;;;22.85;14.65;;;;;;;;;;5144833;27;20368;-75
2023/07/02 10:57:33;;;;;;;19.40;13.45;;;;;;;;;;5144639;27;20198;-75
2023/07/02 11:00:04;;;;;;;20.55;14.35;;;;;;;;;;5144670;27;20296;-75
2023/07/02 11:02:35;;;;;;;21.33;14.05;;;;;;;;;;5144194;27;20201;-76
2023/07/02 11:05:02;;;;;;;19.98;14.20;;;;;;;;;;5144328;27;20216;-75
2023/07/02 11:07:28;;;;;;;23.15;14.38;;;;;;;;;;5144470;27;20222;-75
2023/07/02 11:09:54;;;;;;;21.35;14.57;;;;;;;;;;5144585;27;20197;-75
2023/07/02 11:12:28;;;;;;;22.73;14.68;;;;;;;;;;5144232;27;20198;-74
2023/07/02 11:14:54;;;;;;;23.00;13.82;;;;;;;;;;5144325;27;20194;-75
2023/07/02 11:17:25;;;;;;;24.15;14.82;;;;;;;;;;5144249;27;20199;-75
2023/07/02 11:19:53;;;;;;;20.38;14.88;;;;;;;;;;5144267;27;20219;-75
2023/07/02 11:22:20;;;;;;;21.38;14.65;;;;;;;;;;5143929;27;20193;-74
2023/07/02 11:24:46;;;;;;;24.05;15.45;;;;;;;;;;5144240;27;20543;-73
2023/07/02 11:27:21;;;;;;;22.80;15.10;;;;;;;;;;5143921;27;20225;-73
2023/07/02 11:29:47;;;;;;;22.17;14.20;;;;;;;;;;5144637;27;20416;-74
2023/07/02 11:32:13;;;;;;;19.95;13.95;;;;;;;;;;5143816;27;20399;-75
2023/07/02 11:34:40;;;;;;;19.55;12.90;;;;;;;;;;5144135;27;20200;-75
2023/07/02 11:37:08;;;;;;;21.13;13.05;;;;;;;;;;5144100;27;20489;-75
2023/07/02 11:39:34;;;;;;;22.50;13.00;;;;;;;;;;5144024;27;20193;-75
2023/07/02 11:42:00;;;;;;;22.63;13.68;;;;;;;;;;5143782;27;20189;-75
2023/07/02 11:44:27;;;;;;;21.10;12.77;;;;;;;;;;5143588;27;20231;-75
2023/07/02 11:46:53;;;;;;;21.48;13.00;;;;;;;;;;5143762;27;20294;-75
2023/07/02 11:49:19;;;;;;;19.55;12.43;;;;;;;;;;5143953;27;20194;-75
2023/07/02 11:51:48;;;;;;;18.05;12.63;;;;;;;;;;5143486;27;20517;-75
2023/07/02 11:54:16;;;;;;;16.70;11.75;;;;;;;;;;5144318;27;20201;-74
2023/07/02 11:56:42;;;;;;;20.05;12.55;;;;;;;;;;5143858;27;20558;-74
2023/07/02 11:59:09;;;;;;;17.42;12.05;;;;;;;;;;5143419;27;20400;-75
2023/07/02 12:01:36;;;;;;;20.77;12.35;;;;;;;;;;5143626;27;20437;-75
2023/07/02 12:04:02;;;;;;;20.65;12.55;;;;;;;;;;5143782;27;20198;-75
2023/07/02 12:06:29;;;;;;;18.75;12.90;;;;;;;;;;5143587;27;20217;-74
2023/07/02 12:08:55;;;;;;;20.60;12.98;;;;;;;;;;5143603;27;20193;-74
2023/07/02 12:11:23;;;;;;;22.75;12.15;;;;;;;;;;5143359;27;20200;-74
2023/07/02 12:13:49;;;;;;;21.27;13.20;;;;;;;;;;5143391;27;20524;-75
2023/07/02 12:16:15;;;;;;;19.30;12.38;;;;;;;;;;5143610;27;20362;-75
2023/07/02 12:18:41;;;;;;;19.23;12.30;;;;;;;;;;5143547;27;20546;-75
2023/07/02 12:21:08;;;;;;;22.13;13.13;;;;;;;;;;5143536;27;20198;-75
2023/07/02 12:23:34;;;;;;;22.27;12.40;;;;;;;;;;5143305;27;20383;-75
2023/07/02 12:26:00;;;;;;;18.48;11.82;;;;;;;;;;5143190;27;20493;-75
2023/07/02 12:28:28;;;;;;;22.75;13.00;;;;;;;;;;5143470;27;20405;-73
2023/07/02 12:30:54;;;;;;;17.55;12.70;;;;;;;;;;5143550;27;20194;-73
2023/07/02 12:33:20;;;;;;;18.52;12.32;;;;;;;;;;5143491;27;20194;-73
2023/07/02 12:35:47;;;;;;;19.10;12.25;;;;;;;;;;5143445;27;20194;-75
2023/07/02 12:38:13;;;;;;;19.50;12.48;;;;;;;;;;5143616;27;20190;-75
2023/07/02 12:40:40;;;;;;;19.67;12.85;;;;;;;;;;5143558;27;20456;-73
2023/07/02 12:43:06;;;;;;;18.88;13.20;;;;;;;;;;5143390;27;20420;-75
2023/07/02 12:45:33;;;;;;;17.48;12.23;;;;;;;;;;5143717;27;20535;-75
2023/07/02 12:48:00;;;;;;;18.95;12.82;;;;;;;;;;5143551;27;20602;-73
2023/07/02 12:50:26;;;;;;;20.52;11.95;;;;;;;;;;5143367;27;20198;-73
2023/07/02 12:52:52;;;;;;;19.65;13.20;;;;;;;;;;5143409;27;20246;-75
2023/07/02 12:55:18;;;;;;;16.17;12.48;;;;;;;;;;5143199;27;20407;-75
2023/07/02 12:57:45;;;;;;;20.80;13.05;;;;;;;;;;5142917;27;20369;-73
2023/07/02 13:00:11;;;;;;;17.10;12.18;;;;;;;;;;5142911;27;20212;-73
2023/07/02 13:02:39;;;;;;;21.38;13.07;;;;;;;;;;5143265;27;20194;-73
2023/07/02 13:05:06;;;;;;;19.48;13.93;;;;;;;;;;5146636;27;20201;-73
2023/07/02 13:07:32;;;;;;;20.73;13.05;;;;;;;;;;5146673;27;20265;-73
2023/07/02 13:09:58;;;;;;;18.02;13.45;;;;;;;;;;5146724;27;20513;-74
2023/07/02 13:12:25;;;;;;;20.25;13.40;;;;;;;;;;5146281;27;20211;-73
2023/07/02 13:14:51;;;;;;;20.23;13.95;;;;;;;;;;5146536;27;20414;-73
2023/07/02 13:17:17;;;;;;;19.13;13.48;;;;;;;;;;5146703;27;20379;-73
2023/07/02 13:19:45;;;;;;;18.67;12.95;;;;;;;;;;5146237;27;20264;-73
2023/07/02 13:22:11;;;;;;;20.00;13.27;;;;;;;;;;5146248;27;20198;-73
2023/07/02 13:24:40;;;;;;;18.88;13.15;;;;;;;;;;5146063;27;20194;-73
2023/07/02 13:27:09;;;;;;;17.98;12.73;;;;;;;;;;5145955;27;20239;-73
2023/07/02 13:29:35;;;;;;;20.15;13.02;;;;;;;;;;5146565;27;20494;-74
2023/07/02 13:32:02;;;;;;;23.23;12.95;;;;;;;;;;5146104;27;20275;-75
2023/07/02 13:34:28;;;;;;;20.60;13.52;;;;;;;;;;5146169;27;20225;-75
2023/07/02 13:36:56;;;;;;;19.77;12.50;;;;;;;;;;5145953;27;20189;-73
2023/07/02 13:39:22;;;;;;;20.50;12.63;;;;;;;;;;5145829;27;20202;-73
2023/07/02 13:41:48;;;;;;;23.42;12.77;;;;;;;;;;5145854;27;20544;-73
2023/07/02 13:44:15;;;;;;;17.73;12.70;;;;;;;;;;5145885;27;20232;-73
2023/07/02 13:46:41;;;;;;;18.67;12.65;;;;;;;;;;5145767;27;20194;-73
2023/07/02 13:49:07;;;;;;;16.52;12.18;;;;;;;;;;5145924;27;20206;-72
2023/07/02 13:51:33;;;;;;;21.33;13.55;;;;;;;;;;5145784;27;20209;-73
2023/07/02 13:54:01;;;;;;;16.88;12.18;;;;;;;;;;5145924;27;20190;-73
2023/07/02 13:56:27;;;;;;;21.38;12.88;;;;;;;;;;5145861;27;20194;-73
2023/07/02 13:59:02;;;;;;;18.98;12.57;;;;;;;;;;5146166;27;20190;-73
2023/07/02 14:01:29;;;;;;;18.17;12.00;;;;;;;;;;5146835;27;20377;-73
2023/07/02 14:03:55;;;;;;;18.30;13.13;;;;;;;;;;5145987;27;20198;-73
2023/07/02 14:06:21;;;;;;;21.17;12.40;;;;;;;;;;5145946;27;20194;-73
2023/07/02 14:08:48;;;;;;;16.00;11.20;;;;;;;;;;5145964;27;20217;-73
2023/07/02 14:11:14;;;;;;;17.15;11.35;;;;;;;;;;5145521;27;20200;-73
2023/07/02 14:13:40;;;;;;;16.83;11.30;;;;;;;;;;5145720;27;20190;-73
2023/07/02 14:16:08;;;;;;;16.58;11.95;;;;;;;;;;5145614;27;20190;-73
2023/07/02 14:18:34;;;;;;;15.98;11.75;;;;;;;;;;5145274;27;20190;-73
2023/07/02 14:21:01;;;;;;;19.83;12.57;;;;;;;;;;5144754;27;20197;-73
2023/07/02 14:23:27;;;;;;;16.77;12.18;;;;;;;;;;5145611;27;20502;-74
2023/07/02 14:25:54;;;;;;;21.05;12.07;;;;;;;;;;5145054;27;20540;-73
2023/07/02 14:28:20;;;;;;;19.13;11.75;;;;;;;;;;5145177;27;20263;-73